Flight Weather

Available data for FAOR from the past 2 hours
JOHANNESBURG/TAM
Metar
FAOR 221400Z 30011KT 260V320 CAVOK 26/M02 Q1020 NOSIG

14:00 UTC

Wind: 300° 11kt

Visibility:

Sky:

Temp: 26 deg C / 78.8 deg F

Dewpoint: -2 deg C / 28.4 deg F

Pressure: 1020 hPa

TAF
TAF FAOR 221000Z 2212/2318 31012KT CAVOK TX27/2212Z TN14/2304Z BECMG 2215/2217 02008KT BECMG 2222/2224 18010KT BECMG 2302/2304 08007KT BECMG 2305/2307 36015KT PROB40 TEMPO 2307/2312 36018G28KT PROB30 TEMPO 2314/2318 -TSRA FEW045CB BECMG 2315/2317 07007KT

Don`t copy text!
Call Now
Directions